sensor_id;sensor_type;location;lat;lon;timestamp;P1;durP1;ratioP1;P2;durP2;ratioP2
25946;SDS011;13745;51.470;9.894;2023-06-26T00:02:43;7.80;;;4.63;;
25946;SDS011;13745;51.470;9.894;2023-06-26T00:05:28;5.35;;;4.85;;
25946;SDS011;13745;51.470;9.894;2023-06-26T00:08:14;6.40;;;5.60;;
25946;SDS011;13745;51.470;9.894;2023-06-26T00:10:59;6.63;;;4.63;;
25946;SDS011;13745;51.470;9.894;2023-06-26T00:13:44;9.02;;;4.60;;
25946;SDS011;13745;51.470;9.894;2023-06-26T00:16:29;7.07;;;5.00;;
25946;SDS011;13745;51.470;9.894;2023-06-26T00:19:16;5.97;;;4.38;;
25946;SDS011;13745;51.470;9.894;2023-06-26T00:22:01;5.55;;;5.03;;
25946;SDS011;13745;51.470;9.894;2023-06-26T00:24:47;9.23;;;5.00;;
25946;SDS011;13745;51.470;9.894;2023-06-26T00:27:32;8.77;;;4.82;;
25946;SDS011;13745;51.470;9.894;2023-06-26T00:30:17;8.82;;;4.65;;
25946;SDS011;13745;51.470;9.894;2023-06-26T00:33:02;7.15;;;5.00;;
25946;SDS011;13745;51.470;9.894;2023-06-26T00:35:50;4.53;;;4.13;;
25946;SDS011;13745;51.470;9.894;2023-06-26T00:38:36;11.40;;;5.03;;
25946;SDS011;13745;51.470;9.894;2023-06-26T00:41:23;5.68;;;4.95;;
25946;SDS011;13745;51.470;9.894;2023-06-26T00:44:08;5.55;;;4.80;;
25946;SDS011;13745;51.470;9.894;2023-06-26T00:46:53;6.93;;;5.35;;
25946;SDS011;13745;51.470;9.894;2023-06-26T00:49:38;7.63;;;4.57;;
25946;SDS011;13745;51.470;9.894;2023-06-26T00:52:25;5.10;;;4.60;;
25946;SDS011;13745;51.470;9.894;2023-06-26T00:55:10;7.45;;;4.60;;
25946;SDS011;13745;51.470;9.894;2023-06-26T00:57:55;9.18;;;4.70;;
25946;SDS011;13745;51.470;9.894;2023-06-26T01:00:41;7.32;;;5.03;;
25946;SDS011;13745;51.470;9.894;2023-06-26T01:03:29;14.32;;;6.18;;
25946;SDS011;13745;51.470;9.894;2023-06-26T01:06:13;6.55;;;4.50;;
25946;SDS011;13745;51.470;9.894;2023-06-26T01:09:01;5.40;;;4.90;;
25946;SDS011;13745;51.470;9.894;2023-06-26T01:11:46;6.50;;;4.82;;
25946;SDS011;13745;51.470;9.894;2023-06-26T01:14:33;7.00;;;5.30;;
25946;SDS011;13745;51.470;9.894;2023-06-26T01:17:19;5.20;;;4.78;;
25946;SDS011;13745;51.470;9.894;2023-06-26T01:20:05;8.25;;;5.35;;
25946;SDS011;13745;51.470;9.894;2023-06-26T01:22:54;5.10;;;4.55;;
25946;SDS011;13745;51.470;9.894;2023-06-26T01:28:59;6.65;;;4.65;;
25946;SDS011;13745;51.470;9.894;2023-06-26T01:31:46;6.90;;;4.80;;
25946;SDS011;13745;51.470;9.894;2023-06-26T01:34:33;6.28;;;5.28;;
25946;SDS011;13745;51.470;9.894;2023-06-26T01:37:18;5.03;;;4.53;;
25946;SDS011;13745;51.470;9.894;2023-06-26T01:40:03;7.82;;;5.05;;
25946;SDS011;13745;51.470;9.894;2023-06-26T01:42:51;7.88;;;5.18;;
25946;SDS011;13745;51.470;9.894;2023-06-26T01:45:37;6.07;;;5.10;;
25946;SDS011;13745;51.470;9.894;2023-06-26T01:48:24;6.85;;;4.90;;
25946;SDS011;13745;51.470;9.894;2023-06-26T01:51:15;6.60;;;5.03;;
25946;SDS011;13745;51.470;9.894;2023-06-26T01:54:04;5.07;;;4.55;;
25946;SDS011;13745;51.470;9.894;2023-06-26T01:56:54;7.45;;;4.85;;
25946;SDS011;13745;51.470;9.894;2023-06-26T01:59:43;5.13;;;4.63;;
25946;SDS011;13745;51.470;9.894;2023-06-26T02:02:29;6.80;;;4.93;;
25946;SDS011;13745;51.470;9.894;2023-06-26T02:05:15;8.40;;;5.38;;
25946;SDS011;13745;51.470;9.894;2023-06-26T02:08:00;6.93;;;4.88;;
25946;SDS011;13745;51.470;9.894;2023-06-26T02:10:47;6.03;;;4.82;;
25946;SDS011;13745;51.470;9.894;2023-06-26T02:13:34;9.23;;;4.68;;
25946;SDS011;13745;51.470;9.894;2023-06-26T02:16:20;6.68;;;4.70;;
25946;SDS011;13745;51.470;9.894;2023-06-26T02:19:05;6.25;;;4.43;;
25946;SDS011;13745;51.470;9.894;2023-06-26T02:21:53;6.70;;;4.88;;
25946;SDS011;13745;51.470;9.894;2023-06-26T02:24:37;11.65;;;5.35;;
25946;SDS011;13745;51.470;9.894;2023-06-26T02:27:22;5.50;;;4.95;;
25946;SDS011;13745;51.470;9.894;2023-06-26T02:30:10;7.43;;;4.80;;
25946;SDS011;13745;51.470;9.894;2023-06-26T02:32:57;5.82;;;5.22;;
25946;SDS011;13745;51.470;9.894;2023-06-26T02:35:42;7.15;;;5.25;;
25946;SDS011;13745;51.470;9.894;2023-06-26T02:38:28;5.75;;;4.70;;
25946;SDS011;13745;51.470;9.894;2023-06-26T02:41:13;6.50;;;4.85;;
25946;SDS011;13745;51.470;9.894;2023-06-26T02:43:59;9.75;;;5.18;;
25946;SDS011;13745;51.470;9.894;2023-06-26T02:46:44;5.90;;;4.53;;
25946;SDS011;13745;51.470;9.894;2023-06-26T02:49:31;7.68;;;5.10;;
25946;SDS011;13745;51.470;9.894;2023-06-26T02:52:16;5.60;;;5.03;;
25946;SDS011;13745;51.470;9.894;2023-06-26T02:55:02;8.02;;;5.20;;
25946;SDS011;13745;51.470;9.894;2023-06-26T02:57:49;5.78;;;5.03;;
25946;SDS011;13745;51.470;9.894;2023-06-26T03:00:34;5.35;;;4.72;;
25946;SDS011;13745;51.470;9.894;2023-06-26T03:03:22;6.90;;;4.80;;
25946;SDS011;13745;51.470;9.894;2023-06-26T03:06:08;5.85;;;5.20;;
25946;SDS011;13745;51.470;9.894;2023-06-26T03:08:54;6.65;;;5.53;;
25946;SDS011;13745;51.470;9.894;2023-06-26T03:11:39;5.97;;;5.38;;
25946;SDS011;13745;51.470;9.894;2023-06-26T03:14:24;6.90;;;5.20;;
25946;SDS011;13745;51.470;9.894;2023-06-26T03:17:10;5.47;;;4.57;;
25946;SDS011;13745;51.470;9.894;2023-06-26T03:19:57;6.40;;;5.03;;
25946;SDS011;13745;51.470;9.894;2023-06-26T03:22:50;8.65;;;5.65;;
25946;SDS011;13745;51.470;9.894;2023-06-26T03:25:36;8.10;;;4.93;;
25946;SDS011;13745;51.470;9.894;2023-06-26T03:28:34;5.93;;;5.38;;
25946;SDS011;13745;51.470;9.894;2023-06-26T03:31:19;6.20;;;5.60;;
25946;SDS011;13745;51.470;9.894;2023-06-26T03:34:05;6.85;;;5.15;;
25946;SDS011;13745;51.470;9.894;2023-06-26T03:36:50;12.40;;;5.82;;
25946;SDS011;13745;51.470;9.894;2023-06-26T03:39:37;6.40;;;5.68;;
25946;SDS011;13745;51.470;9.894;2023-06-26T03:42:22;5.82;;;5.20;;
25946;SDS011;13745;51.470;9.894;2023-06-26T03:45:07;8.98;;;5.55;;
25946;SDS011;13745;51.470;9.894;2023-06-26T03:47:53;8.73;;;5.82;;
25946;SDS011;13745;51.470;9.894;2023-06-26T03:50:38;9.23;;;5.85;;
25946;SDS011;13745;51.470;9.894;2023-06-26T03:53:23;7.35;;;5.97;;
25946;SDS011;13745;51.470;9.894;2023-06-26T03:56:10;7.22;;;6.15;;
25946;SDS011;13745;51.470;9.894;2023-06-26T03:58:55;8.82;;;5.93;;
25946;SDS011;13745;51.470;9.894;2023-06-26T04:01:40;10.45;;;5.93;;
25946;SDS011;13745;51.470;9.894;2023-06-26T04:04:25;6.53;;;5.90;;
25946;SDS011;13745;51.470;9.894;2023-06-26T04:07:12;9.55;;;5.85;;
25946;SDS011;13745;51.470;9.894;2023-06-26T04:09:58;9.25;;;6.53;;
25946;SDS011;13745;51.470;9.894;2023-06-26T04:12:46;8.65;;;6.45;;
25946;SDS011;13745;51.470;9.894;2023-06-26T04:15:31;7.90;;;5.78;;
25946;SDS011;13745;51.470;9.894;2023-06-26T04:18:16;10.68;;;6.90;;
25946;SDS011;13745;51.470;9.894;2023-06-26T04:21:05;9.98;;;6.43;;
25946;SDS011;13745;51.470;9.894;2023-06-26T04:23:55;7.38;;;6.55;;
25946;SDS011;13745;51.470;9.894;2023-06-26T04:26:40;9.18;;;6.47;;
25946;SDS011;13745;51.470;9.894;2023-06-26T04:29:27;7.85;;;5.60;;
25946;SDS011;13745;51.470;9.894;2023-06-26T04:32:12;6.85;;;5.75;;
25946;SDS011;13745;51.470;9.894;2023-06-26T04:34:57;7.13;;;6.43;;
25946;SDS011;13745;51.470;9.894;2023-06-26T04:37:42;10.63;;;6.80;;
25946;SDS011;13745;51.470;9.894;2023-06-26T04:40:27;7.68;;;6.70;;
25946;SDS011;13745;51.470;9.894;2023-06-26T04:43:12;8.00;;;6.30;;
25946;SDS011;13745;51.470;9.894;2023-06-26T04:45:58;8.05;;;6.15;;
25946;SDS011;13745;51.470;9.894;2023-06-26T04:48:43;12.25;;;6.57;;
25946;SDS011;13745;51.470;9.894;2023-06-26T04:51:29;12.80;;;6.10;;
25946;SDS011;13745;51.470;9.894;2023-06-26T04:54:14;7.38;;;5.18;;
25946;SDS011;13745;51.470;9.894;2023-06-26T04:56:58;10.77;;;5.95;;
25946;SDS011;13745;51.470;9.894;2023-06-26T04:59:43;14.00;;;5.97;;
25946;SDS011;13745;51.470;9.894;2023-06-26T05:02:30;6.72;;;5.28;;
25946;SDS011;13745;51.470;9.894;2023-06-26T05:05:15;8.85;;;5.88;;
25946;SDS011;13745;51.470;9.894;2023-06-26T05:08:12;6.32;;;5.65;;
25946;SDS011;13745;51.470;9.894;2023-06-26T05:10:58;6.97;;;5.32;;
25946;SDS011;13745;51.470;9.894;2023-06-26T05:13:43;7.75;;;5.90;;
25946;SDS011;13745;51.470;9.894;2023-06-26T05:16:28;6.68;;;5.60;;
25946;SDS011;13745;51.470;9.894;2023-06-26T05:19:14;7.22;;;5.25;;
25946;SDS011;13745;51.470;9.894;2023-06-26T05:22:00;7.65;;;5.40;;
25946;SDS011;13745;51.470;9.894;2023-06-26T05:24:47;7.72;;;5.07;;
25946;SDS011;13745;51.470;9.894;2023-06-26T05:27:32;7.20;;;5.57;;
25946;SDS011;13745;51.470;9.894;2023-06-26T05:30:18;7.25;;;5.18;;
25946;SDS011;13745;51.470;9.894;2023-06-26T05:33:04;7.60;;;5.32;;
25946;SDS011;13745;51.470;9.894;2023-06-26T05:35:53;8.30;;;5.82;;
25946;SDS011;13745;51.470;9.894;2023-06-26T05:38:39;7.95;;;5.95;;
25946;SDS011;13745;51.470;9.894;2023-06-26T05:41:24;7.55;;;5.40;;
25946;SDS011;13745;51.470;9.894;2023-06-26T05:44:10;6.72;;;5.60;;
25946;SDS011;13745;51.470;9.894;2023-06-26T05:46:55;6.78;;;6.07;;
25946;SDS011;13745;51.470;9.894;2023-06-26T05:49:40;7.35;;;5.60;;
25946;SDS011;13745;51.470;9.894;2023-06-26T05:52:26;9.40;;;5.63;;
25946;SDS011;13745;51.470;9.894;2023-06-26T05:55:12;8.00;;;6.15;;
25946;SDS011;13745;51.470;9.894;2023-06-26T05:57:58;6.82;;;5.47;;
25946;SDS011;13745;51.470;9.894;2023-06-26T06:00:44;6.25;;;5.65;;
25946;SDS011;13745;51.470;9.894;2023-06-26T06:03:29;6.50;;;4.97;;
25946;SDS011;13745;51.470;9.894;2023-06-26T06:06:14;6.57;;;5.40;;
25946;SDS011;13745;51.470;9.894;2023-06-26T06:09:01;5.93;;;5.32;;
25946;SDS011;13745;51.470;9.894;2023-06-26T06:11:47;7.40;;;5.47;;
25946;SDS011;13745;51.470;9.894;2023-06-26T06:14:32;6.18;;;5.30;;
25946;SDS011;13745;51.470;9.894;2023-06-26T06:17:17;6.05;;;5.43;;
25946;SDS011;13745;51.470;9.894;2023-06-26T06:20:02;6.43;;;5.75;;
25946;SDS011;13745;51.470;9.894;2023-06-26T06:22:47;6.13;;;5.53;;
25946;SDS011;13745;51.470;9.894;2023-06-26T06:25:34;5.40;;;4.90;;
25946;SDS011;13745;51.470;9.894;2023-06-26T06:28:19;8.23;;;5.53;;
25946;SDS011;13745;51.470;9.894;2023-06-26T06:31:05;6.40;;;5.63;;
25946;SDS011;13745;51.470;9.894;2023-06-26T06:33:50;6.38;;;5.18;;
25946;SDS011;13745;51.470;9.894;2023-06-26T06:36:35;5.38;;;4.88;;
25946;SDS011;13745;51.470;9.894;2023-06-26T06:39:20;6.43;;;5.57;;
25946;SDS011;13745;51.470;9.894;2023-06-26T06:42:06;7.35;;;5.57;;
25946;SDS011;13745;51.470;9.894;2023-06-26T06:44:52;10.75;;;5.80;;
25946;SDS011;13745;51.470;9.894;2023-06-26T06:47:37;6.93;;;5.25;;
25946;SDS011;13745;51.470;9.894;2023-06-26T06:50:22;6.38;;;5.45;;
25946;SDS011;13745;51.470;9.894;2023-06-26T06:53:07;6.35;;;5.35;;
25946;SDS011;13745;51.470;9.894;2023-06-26T06:55:52;6.43;;;5.00;;
25946;SDS011;13745;51.470;9.894;2023-06-26T06:58:38;6.55;;;5.95;;
25946;SDS011;13745;51.470;9.894;2023-06-26T07:01:25;6.38;;;5.22;;
25946;SDS011;13745;51.470;9.894;2023-06-26T07:04:11;5.78;;;5.28;;
25946;SDS011;13745;51.470;9.894;2023-06-26T07:06:56;6.25;;;5.53;;
25946;SDS011;13745;51.470;9.894;2023-06-26T07:09:41;6.50;;;5.90;;
25946;SDS011;13745;51.470;9.894;2023-06-26T07:12:26;6.45;;;5.40;;
25946;SDS011;13745;51.470;9.894;2023-06-26T07:15:12;6.35;;;5.75;;
25946;SDS011;13745;51.470;9.894;2023-06-26T07:17:57;9.23;;;5.80;;
25946;SDS011;13745;51.470;9.894;2023-06-26T07:20:43;6.82;;;5.30;;
25946;SDS011;13745;51.470;9.894;2023-06-26T07:23:27;7.10;;;5.10;;
25946;SDS011;13745;51.470;9.894;2023-06-26T07:26:13;6.00;;;5.38;;
25946;SDS011;13745;51.470;9.894;2023-06-26T07:28:59;6.47;;;5.10;;
25946;SDS011;13745;51.470;9.894;2023-06-26T07:31:46;5.57;;;5.05;;
25946;SDS011;13745;51.470;9.894;2023-06-26T07:34:31;5.38;;;4.80;;
25946;SDS011;13745;51.470;9.894;2023-06-26T07:37:17;8.25;;;4.93;;
25946;SDS011;13745;51.470;9.894;2023-06-26T07:40:02;6.00;;;5.28;;
25946;SDS011;13745;51.470;9.894;2023-06-26T07:42:48;6.10;;;5.50;;
25946;SDS011;13745;51.470;9.894;2023-06-26T07:45:33;5.60;;;4.97;;
25946;SDS011;13745;51.470;9.894;2023-06-26T07:48:19;6.28;;;5.30;;
25946;SDS011;13745;51.470;9.894;2023-06-26T07:51:05;6.68;;;5.15;;
25946;SDS011;13745;51.470;9.894;2023-06-26T07:53:50;5.88;;;5.05;;
25946;SDS011;13745;51.470;9.894;2023-06-26T07:56:35;5.88;;;5.22;;
25946;SDS011;13745;51.470;9.894;2023-06-26T07:59:38;7.32;;;5.07;;
25946;SDS011;13745;51.470;9.894;2023-06-26T08:02:23;5.97;;;5.15;;
25946;SDS011;13745;51.470;9.894;2023-06-26T08:05:09;8.35;;;5.75;;
25946;SDS011;13745;51.470;9.894;2023-06-26T08:07:54;5.60;;;4.90;;
25946;SDS011;13745;51.470;9.894;2023-06-26T08:10:40;5.72;;;5.22;;
25946;SDS011;13745;51.470;9.894;2023-06-26T08:13:25;7.75;;;4.97;;
25946;SDS011;13745;51.470;9.894;2023-06-26T08:16:10;6.00;;;5.38;;
25946;SDS011;13745;51.470;9.894;2023-06-26T08:18:55;5.45;;;4.85;;
25946;SDS011;13745;51.470;9.894;2023-06-26T08:21:42;5.20;;;4.45;;
25946;SDS011;13745;51.470;9.894;2023-06-26T08:24:28;6.80;;;4.80;;
25946;SDS011;13745;51.470;9.894;2023-06-26T08:27:13;8.98;;;5.28;;
25946;SDS011;13745;51.470;9.894;2023-06-26T08:29:58;4.68;;;4.28;;
25946;SDS011;13745;51.470;9.894;2023-06-26T08:32:43;5.25;;;4.70;;
25946;SDS011;13745;51.470;9.894;2023-06-26T08:35:28;5.82;;;4.68;;
25946;SDS011;13745;51.470;9.894;2023-06-26T08:38:14;5.85;;;5.25;;
25946;SDS011;13745;51.470;9.894;2023-06-26T08:40:59;5.03;;;4.55;;
25946;SDS011;13745;51.470;9.894;2023-06-26T08:43:44;5.07;;;4.57;;
25946;SDS011;13745;51.470;9.894;2023-06-26T08:46:30;5.47;;;4.97;;
25946;SDS011;13745;51.470;9.894;2023-06-26T08:49:18;6.18;;;4.40;;
25946;SDS011;13745;51.470;9.894;2023-06-26T08:52:09;8.00;;;4.47;;
25946;SDS011;13745;51.470;9.894;2023-06-26T08:54:59;7.53;;;4.65;;
25946;SDS011;13745;51.470;9.894;2023-06-26T08:57:46;5.63;;;4.70;;
25946;SDS011;13745;51.470;9.894;2023-06-26T09:00:31;5.35;;;4.85;;
25946;SDS011;13745;51.470;9.894;2023-06-26T09:03:17;5.90;;;4.63;;
25946;SDS011;13745;51.470;9.894;2023-06-26T09:06:02;5.68;;;5.00;;
25946;SDS011;13745;51.470;9.894;2023-06-26T09:08:47;4.85;;;4.18;;
25946;SDS011;13745;51.470;9.894;2023-06-26T09:11:34;5.20;;;4.70;;
25946;SDS011;13745;51.470;9.894;2023-06-26T09:14:18;6.75;;;5.15;;
25946;SDS011;13745;51.470;9.894;2023-06-26T09:17:04;5.45;;;4.95;;
25946;SDS011;13745;51.470;9.894;2023-06-26T09:19:49;8.07;;;6.13;;
25946;SDS011;13745;51.470;9.894;2023-06-26T09:22:36;6.75;;;4.82;;
25946;SDS011;13745;51.470;9.894;2023-06-26T09:25:21;5.65;;;4.50;;
25946;SDS011;13745;51.470;9.894;2023-06-26T09:28:09;5.90;;;5.18;;
25946;SDS011;13745;51.470;9.894;2023-06-26T09:30:54;5.53;;;4.78;;
25946;SDS011;13745;51.470;9.894;2023-06-26T09:33:39;6.20;;;4.43;;
25946;SDS011;13745;51.470;9.894;2023-06-26T09:36:27;6.55;;;5.10;;
25946;SDS011;13745;51.470;9.894;2023-06-26T09:39:16;6.68;;;5.03;;
25946;SDS011;13745;51.470;9.894;2023-06-26T09:42:02;6.03;;;5.43;;
25946;SDS011;13745;51.470;9.894;2023-06-26T09:44:51;6.78;;;5.50;;
25946;SDS011;13745;51.470;9.894;2023-06-26T09:47:38;5.90;;;5.30;;
25946;SDS011;13745;51.470;9.894;2023-06-26T09:50:29;6.22;;;5.57;;
25946;SDS011;13745;51.470;9.894;2023-06-26T09:53:17;7.78;;;5.53;;
25946;SDS011;13745;51.470;9.894;2023-06-26T09:56:05;6.82;;;6.22;;
25946;SDS011;13745;51.470;9.894;2023-06-26T09:58:50;6.70;;;5.18;;
25946;SDS011;13745;51.470;9.894;2023-06-26T10:01:39;7.57;;;6.18;;
25946;SDS011;13745;51.470;9.894;2023-06-26T10:04:25;10.60;;;5.63;;
25946;SDS011;13745;51.470;9.894;2023-06-26T10:07:11;7.57;;;5.50;;
25946;SDS011;13745;51.470;9.894;2023-06-26T10:09:56;6.55;;;5.40;;
25946;SDS011;13745;51.470;9.894;2023-06-26T10:12:43;6.28;;;5.57;;
25946;SDS011;13745;51.470;9.894;2023-06-26T10:15:34;7.80;;;6.00;;
25946;SDS011;13745;51.470;9.894;2023-06-26T10:18:22;6.10;;;5.60;;
25946;SDS011;13745;51.470;9.894;2023-06-26T10:21:10;6.22;;;5.70;;
25946;SDS011;13745;51.470;9.894;2023-06-26T10:23:57;7.10;;;5.97;;
25946;SDS011;13745;51.470;9.894;2023-06-26T10:26:44;9.18;;;5.95;;
25946;SDS011;13745;51.470;9.894;2023-06-26T10:29:29;7.38;;;5.93;;
25946;SDS011;13745;51.470;9.894;2023-06-26T10:32:16;7.40;;;5.47;;
25946;SDS011;13745;51.470;9.894;2023-06-26T10:35:05;6.25;;;5.68;;
25946;SDS011;13745;51.470;9.894;2023-06-26T10:37:51;10.32;;;5.38;;
25946;SDS011;13745;51.470;9.894;2023-06-26T10:40:42;8.10;;;5.63;;
25946;SDS011;13745;51.470;9.894;2023-06-26T10:43:29;10.75;;;6.13;;
25946;SDS011;13745;51.470;9.894;2023-06-26T10:46:15;6.75;;;5.45;;
25946;SDS011;13745;51.470;9.894;2023-06-26T10:49:00;8.98;;;6.05;;
25946;SDS011;13745;51.470;9.894;2023-06-26T10:51:48;6.65;;;4.93;;
25946;SDS011;13745;51.470;9.894;2023-06-26T10:54:34;18.38;;;8.18;;
25946;SDS011;13745;51.470;9.894;2023-06-26T10:57:23;9.45;;;5.88;;
25946;SDS011;13745;51.470;9.894;2023-06-26T11:00:08;10.30;;;6.22;;
25946;SDS011;13745;51.470;9.894;2023-06-26T11:02:54;6.00;;;5.30;;
25946;SDS011;13745;51.470;9.894;2023-06-26T11:05:39;6.35;;;5.20;;
25946;SDS011;13745;51.470;9.894;2023-06-26T11:08:28;11.93;;;5.53;;
25946;SDS011;13745;51.470;9.894;2023-06-26T11:17:30;14.80;;;6.05;;
25946;SDS011;13745;51.470;9.894;2023-06-26T11:20:16;7.45;;;6.60;;
25946;SDS011;13745;51.470;9.894;2023-06-26T11:23:01;10.93;;;7.40;;
25946;SDS011;13745;51.470;9.894;2023-06-26T11:25:51;12.70;;;8.15;;
25946;SDS011;13745;51.470;9.894;2023-06-26T11:28:36;11.07;;;8.43;;
25946;SDS011;13745;51.470;9.894;2023-06-26T11:31:25;11.88;;;8.50;;
25946;SDS011;13745;51.470;9.894;2023-06-26T11:34:13;16.35;;;9.90;;
25946;SDS011;13745;51.470;9.894;2023-06-26T11:36:59;12.75;;;8.60;;
25946;SDS011;13745;51.470;9.894;2023-06-26T11:39:47;12.52;;;9.75;;
25946;SDS011;13745;51.470;9.894;2023-06-26T11:42:33;11.93;;;10.40;;
25946;SDS011;13745;51.470;9.894;2023-06-26T11:45:19;13.50;;;11.40;;
25946;SDS011;13745;51.470;9.894;2023-06-26T11:48:04;17.48;;;11.20;;
25946;SDS011;13745;51.470;9.894;2023-06-26T11:50:50;18.73;;;11.32;;
25946;SDS011;13745;51.470;9.894;2023-06-26T11:53:38;16.15;;;12.20;;
25946;SDS011;13745;51.470;9.894;2023-06-26T11:56:25;20.55;;;12.45;;
25946;SDS011;13745;51.470;9.894;2023-06-26T11:59:12;13.10;;;11.32;;
25946;SDS011;13745;51.470;9.894;2023-06-26T12:01:57;11.93;;;10.70;;
25946;SDS011;13745;51.470;9.894;2023-06-26T12:04:42;18.35;;;11.38;;
25946;SDS011;13745;51.470;9.894;2023-06-26T12:07:29;14.60;;;10.85;;
25946;SDS011;13745;51.470;9.894;2023-06-26T12:10:14;20.58;;;11.52;;
25946;SDS011;13745;51.470;9.894;2023-06-26T12:13:01;12.38;;;10.65;;
25946;SDS011;13745;51.470;9.894;2023-06-26T12:15:48;11.77;;;10.32;;
25946;SDS011;13745;51.470;9.894;2023-06-26T12:18:34;12.43;;;11.10;;
25946;SDS011;13745;51.470;9.894;2023-06-26T12:24:31;17.13;;;10.50;;
25946;SDS011;13745;51.470;9.894;2023-06-26T12:27:17;12.90;;;10.57;;
25946;SDS011;13745;51.470;9.894;2023-06-26T12:30:04;13.07;;;10.38;;
25946;SDS011;13745;51.470;9.894;2023-06-26T12:32:51;12.80;;;9.27;;
25946;SDS011;13745;51.470;9.894;2023-06-26T12:35:37;12.63;;;9.02;;
25946;SDS011;13745;51.470;9.894;2023-06-26T12:38:23;11.57;;;8.93;;
25946;SDS011;13745;51.470;9.894;2023-06-26T12:41:11;12.57;;;7.80;;
25946;SDS011;13745;51.470;9.894;2023-06-26T12:43:57;8.38;;;7.65;;
25946;SDS011;13745;51.470;9.894;2023-06-26T12:46:42;10.55;;;7.70;;
25946;SDS011;13745;51.470;9.894;2023-06-26T12:49:33;11.52;;;6.90;;
25946;SDS011;13745;51.470;9.894;2023-06-26T12:52:19;12.05;;;6.60;;
25946;SDS011;13745;51.470;9.894;2023-06-26T12:55:05;10.10;;;7.10;;
25946;SDS011;13745;51.470;9.894;2023-06-26T12:57:51;7.78;;;6.97;;
25946;SDS011;13745;51.470;9.894;2023-06-26T13:00:35;10.98;;;6.78;;
25946;SDS011;13745;51.470;9.894;2023-06-26T13:03:21;13.02;;;6.55;;
25946;SDS011;13745;51.470;9.894;2023-06-26T13:06:07;10.25;;;6.63;;
25946;SDS011;13745;51.470;9.894;2023-06-26T13:08:53;9.02;;;6.60;;
25946;SDS011;13745;51.470;9.894;2023-06-26T13:11:38;7.57;;;6.82;;
25946;SDS011;13745;51.470;9.894;2023-06-26T13:14:23;9.35;;;6.78;;
25946;SDS011;13745;51.470;9.894;2023-06-26T13:17:08;13.75;;;6.63;;
25946;SDS011;13745;51.470;9.894;2023-06-26T13:19:55;9.23;;;5.82;;
25946;SDS011;13745;51.470;9.894;2023-06-26T13:22:42;9.20;;;6.55;;
25946;SDS011;13745;51.470;9.894;2023-06-26T13:25:27;7.75;;;6.22;;
25946;SDS011;13745;51.470;9.894;2023-06-26T13:28:12;10.23;;;6.60;;
25946;SDS011;13745;51.470;9.894;2023-06-26T13:30:57;10.85;;;6.63;;
25946;SDS011;13745;51.470;9.894;2023-06-26T13:33:43;10.70;;;6.68;;
25946;SDS011;13745;51.470;9.894;2023-06-26T13:36:29;7.93;;;6.20;;
25946;SDS011;13745;51.470;9.894;2023-06-26T13:39:19;7.28;;;6.32;;
25946;SDS011;13745;51.470;9.894;2023-06-26T13:42:05;12.27;;;6.93;;
25946;SDS011;13745;51.470;9.894;2023-06-26T13:44:50;8.48;;;6.85;;
25946;SDS011;13745;51.470;9.894;2023-06-26T13:47:35;9.63;;;7.07;;
25946;SDS011;13745;51.470;9.894;2023-06-26T13:50:23;10.68;;;6.95;;
25946;SDS011;13745;51.470;9.894;2023-06-26T13:53:09;8.75;;;6.30;;
25946;SDS011;13745;51.470;9.894;2023-06-26T13:55:56;10.35;;;5.63;;
25946;SDS011;13745;51.470;9.894;2023-06-26T13:58:41;15.38;;;6.15;;
25946;SDS011;13745;51.470;9.894;2023-06-26T14:01:26;9.63;;;6.32;;
25946;SDS011;13745;51.470;9.894;2023-06-26T14:04:12;6.85;;;5.35;;
25946;SDS011;13745;51.470;9.894;2023-06-26T14:06:57;9.15;;;5.30;;
25946;SDS011;13745;51.470;9.894;2023-06-26T14:09:42;6.95;;;4.97;;
25946;SDS011;13745;51.470;9.894;2023-06-26T14:12:28;8.68;;;4.90;;
25946;SDS011;13745;51.470;9.894;2023-06-26T14:15:14;7.93;;;4.70;;
25946;SDS011;13745;51.470;9.894;2023-06-26T14:17:59;7.68;;;4.18;;
25946;SDS011;13745;51.470;9.894;2023-06-26T14:20:46;7.03;;;4.40;;
25946;SDS011;13745;51.470;9.894;2023-06-26T14:23:31;8.75;;;4.40;;
25946;SDS011;13745;51.470;9.894;2023-06-26T14:26:16;8.63;;;4.22;;
25946;SDS011;13745;51.470;9.894;2023-06-26T14:29:02;8.13;;;4.10;;
25946;SDS011;13745;51.470;9.894;2023-06-26T14:31:48;21.55;;;4.97;;
25946;SDS011;13745;51.470;9.894;2023-06-26T14:34:32;5.95;;;3.70;;
25946;SDS011;13745;51.470;9.894;2023-06-26T14:37:18;5.85;;;3.47;;
25946;SDS011;13745;51.470;9.894;2023-06-26T14:40:03;4.78;;;2.90;;
25946;SDS011;13745;51.470;9.894;2023-06-26T14:42:49;10.27;;;2.85;;
25946;SDS011;13745;51.470;9.894;2023-06-26T14:45:35;4.60;;;2.95;;
25946;SDS011;13745;51.470;9.894;2023-06-26T14:48:20;4.82;;;2.95;;
25946;SDS011;13745;51.470;9.894;2023-06-26T14:51:05;8.05;;;3.28;;
25946;SDS011;13745;51.470;9.894;2023-06-26T14:53:50;23.27;;;4.68;;
25946;SDS011;13745;51.470;9.894;2023-06-26T14:56:36;7.32;;;3.50;;
25946;SDS011;13745;51.470;9.894;2023-06-26T14:59:21;10.10;;;3.30;;
25946;SDS011;13745;51.470;9.894;2023-06-26T15:02:07;9.48;;;3.08;;
25946;SDS011;13745;51.470;9.894;2023-06-26T15:04:52;4.65;;;2.50;;
25946;SDS011;13745;51.470;9.894;2023-06-26T15:07:37;6.95;;;2.80;;
25946;SDS011;13745;51.470;9.894;2023-06-26T15:10:22;4.63;;;2.22;;
25946;SDS011;13745;51.470;9.894;2023-06-26T15:13:07;4.25;;;2.75;;
25946;SDS011;13745;51.470;9.894;2023-06-26T15:15:52;5.05;;;2.40;;
25946;SDS011;13745;51.470;9.894;2023-06-26T15:18:39;3.97;;;2.42;;
25946;SDS011;13745;51.470;9.894;2023-06-26T15:21:24;5.55;;;2.63;;
25946;SDS011;13745;51.470;9.894;2023-06-26T15:24:10;6.85;;;2.80;;
25946;SDS011;13745;51.470;9.894;2023-06-26T15:26:55;4.63;;;3.28;;
25946;SDS011;13745;51.470;9.894;2023-06-26T15:29:41;4.38;;;2.53;;
25946;SDS011;13745;51.470;9.894;2023-06-26T15:32:26;3.88;;;2.17;;
25946;SDS011;13745;51.470;9.894;2023-06-26T15:35:12;2.58;;;2.03;;
25946;SDS011;13745;51.470;9.894;2023-06-26T15:37:58;5.55;;;2.20;;
25946;SDS011;13745;51.470;9.894;2023-06-26T15:40:43;9.98;;;3.22;;
25946;SDS011;13745;51.470;9.894;2023-06-26T15:43:27;4.10;;;2.42;;
25946;SDS011;13745;51.470;9.894;2023-06-26T15:46:13;2.97;;;2.50;;
25946;SDS011;13745;51.470;9.894;2023-06-26T15:48:58;7.07;;;2.30;;
25946;SDS011;13745;51.470;9.894;2023-06-26T15:51:44;2.30;;;2.00;;
25946;SDS011;13745;51.470;9.894;2023-06-26T15:54:31;5.93;;;2.20;;
25946;SDS011;13745;51.470;9.894;2023-06-26T15:57:16;3.83;;;2.47;;
25946;SDS011;13745;51.470;9.894;2023-06-26T16:00:01;10.48;;;2.30;;
25946;SDS011;13745;51.470;9.894;2023-06-26T16:02:56;3.80;;;2.33;;
25946;SDS011;13745;51.470;9.894;2023-06-26T16:05:41;5.63;;;2.55;;
25946;SDS011;13745;51.470;9.894;2023-06-26T16:08:28;4.65;;;2.63;;
25946;SDS011;13745;51.470;9.894;2023-06-26T16:11:13;6.00;;;2.40;;
25946;SDS011;13745;51.470;9.894;2023-06-26T16:13:59;5.07;;;2.20;;
25946;SDS011;13745;51.470;9.894;2023-06-26T16:16:44;4.13;;;2.35;;
25946;SDS011;13745;51.470;9.894;2023-06-26T16:19:29;6.68;;;2.55;;
25946;SDS011;13745;51.470;9.894;2023-06-26T16:22:14;5.68;;;2.70;;
25946;SDS011;13745;51.470;9.894;2023-06-26T16:25:00;4.65;;;2.45;;
25946;SDS011;13745;51.470;9.894;2023-06-26T16:27:45;5.55;;;2.40;;
25946;SDS011;13745;51.470;9.894;2023-06-26T16:30:30;7.30;;;2.95;;
25946;SDS011;13745;51.470;9.894;2023-06-26T16:33:15;6.75;;;2.13;;
25946;SDS011;13745;51.470;9.894;2023-06-26T16:36:00;3.92;;;2.22;;
25946;SDS011;13745;51.470;9.894;2023-06-26T16:38:45;4.60;;;2.22;;
25946;SDS011;13745;51.470;9.894;2023-06-26T16:41:33;12.13;;;2.10;;
25946;SDS011;13745;51.470;9.894;2023-06-26T16:44:18;5.07;;;2.22;;
25946;SDS011;13745;51.470;9.894;2023-06-26T16:47:03;5.03;;;2.08;;
25946;SDS011;13745;51.470;9.894;2023-06-26T16:49:49;4.97;;;2.17;;
25946;SDS011;13745;51.470;9.894;2023-06-26T16:52:34;2.88;;;1.60;;